Time;durP1;ratioP1;P1;durP2;ratioP2;P2;SDS_P1;SDS_P2;PMS_P1;PMS_P2;Temp;Humidity;BMP_temperature;BMP_pressure;BME280_temperature;BME280_humidity;BME280_pressure;Samples;Min_cycle;Max_cycle;Signal;HPM_P1;HPM_P2
2023/12/24 00:02:25;;;;;;;8.50;2.97;;;8.70;99.90;;;;;;5000893;28;20460;-66
2023/12/24 00:04:53;;;;;;;9.60;3.57;;;8.70;99.90;;;;;;5000703;28;20489;-67
2023/12/24 00:07:20;;;;;;;13.07;4.37;;;8.70;99.90;;;;;;5000475;28;20726;-65
2023/12/24 00:09:47;;;;;;;10.20;4.00;;;8.70;99.90;;;;;;5000543;28;20552;-64
2023/12/24 00:12:15;;;;;;;5.67;3.20;;;8.70;99.90;;;;;;5000349;28;20464;-66
2023/12/24 00:14:43;;;;;;;6.93;3.77;;;8.70;99.90;;;;;;5000323;28;20960;-66
2023/12/24 00:17:11;;;;;;;8.30;3.87;;;8.70;99.90;;;;;;5003639;28;20464;-66
2023/12/24 00:19:40;;;;;;;9.20;4.23;;;8.70;99.90;;;;;;5018462;28;20954;-66
2023/12/24 00:22:10;;;;;;;8.30;3.73;;;8.70;99.90;;;;;;5019750;28;20456;-66
2023/12/24 00:24:37;;;;;;;4.73;3.30;;;8.70;99.90;;;;;;5019284;28;20777;-67
2023/12/24 00:27:05;;;;;;;7.70;3.17;;;8.70;99.90;;;;;;5019440;28;20915;-65
2023/12/24 00:29:32;;;;;;;5.87;3.40;;;8.70;99.90;;;;;;5019475;28;20471;-67
2023/12/24 00:32:01;;;;;;;7.47;3.50;;;8.70;99.90;;;;;;5019861;28;20885;-67
2023/12/24 00:34:28;;;;;;;6.50;3.70;;;8.80;99.90;;;;;;5019527;28;20523;-66
2023/12/24 00:36:57;;;;;;;11.57;3.27;;;8.80;99.90;;;;;;5019538;28;20452;-66
2023/12/24 00:39:24;;;;;;;5.57;3.27;;;8.80;99.90;;;;;;5019348;28;20460;-66
2023/12/24 00:41:52;;;;;;;6.10;3.20;;;8.70;99.90;;;;;;5017903;28;20546;-65
2023/12/24 00:44:19;;;;;;;7.20;3.43;;;8.80;99.90;;;;;;5017107;28;20462;-65
2023/12/24 00:46:47;;;;;;;8.80;4.57;;;8.70;99.90;;;;;;5017663;28;20554;-66
2023/12/24 00:49:14;;;;;;;8.30;3.60;;;8.80;99.90;;;;;;5018098;28;20461;-66
2023/12/24 00:51:43;;;;;;;6.13;3.23;;;8.80;99.90;;;;;;5018501;28;20467;-65
2023/12/24 00:54:12;;;;;;;7.40;3.90;;;8.70;99.90;;;;;;5017479;28;20480;-67
2023/12/24 00:56:39;;;;;;;4.93;2.97;;;8.70;99.90;;;;;;5018245;28;20506;-67
2023/12/24 00:59:06;;;;;;;8.67;3.20;;;8.70;99.90;;;;;;5018311;28;20562;-68
2023/12/24 01:01:33;;;;;;;8.40;3.20;;;8.70;99.90;;;;;;5018904;28;20462;-65
2023/12/24 01:04:00;;;;;;;9.57;3.80;;;8.70;99.90;;;;;;5018974;28;20885;-70
2023/12/24 01:06:28;;;;;;;7.90;3.47;;;8.70;99.90;;;;;;5018101;28;20558;-65
2023/12/24 01:08:55;;;;;;;9.83;3.70;;;8.70;99.90;;;;;;5018199;28;20551;-68
2023/12/24 01:11:24;;;;;;;7.00;3.20;;;8.70;99.90;;;;;;5018032;28;20470;-67
2023/12/24 01:13:50;;;;;;;6.23;3.50;;;8.70;99.90;;;;;;5017934;28;20564;-67
2023/12/24 01:16:17;;;;;;;8.33;3.70;;;8.70;99.90;;;;;;5018191;28;20465;-70
2023/12/24 01:18:46;;;;;;;4.67;3.60;;;8.70;99.90;;;;;;5017799;28;20572;-70
2023/12/24 01:21:13;;;;;;;4.77;3.17;;;8.60;99.90;;;;;;5018615;28;20468;-67
2023/12/24 01:23:40;;;;;;;4.00;3.20;;;8.60;99.90;;;;;;5021340;28;20818;-67
2023/12/24 01:26:07;;;;;;;6.17;3.93;;;8.60;99.90;;;;;;5018799;28;20542;-66
2023/12/24 01:28:36;;;;;;;10.03;4.20;;;8.50;99.90;;;;;;5019012;28;20567;-65
2023/12/24 01:31:03;;;;;;;4.53;2.83;;;8.50;99.90;;;;;;5018444;28;20464;-67
2023/12/24 01:33:31;;;;;;;4.43;2.83;;;8.50;99.90;;;;;;5018612;28;20680;-66
2023/12/24 01:35:58;;;;;;;7.50;3.70;;;8.50;99.90;;;;;;5018318;28;20500;-66
2023/12/24 01:38:25;;;;;;;3.33;2.60;;;8.50;99.90;;;;;;5018436;28;20551;-66
2023/12/24 01:40:52;;;;;;;5.73;3.67;;;8.40;99.90;;;;;;5018924;28;20469;-67
2023/12/24 01:43:20;;;;;;;5.07;3.30;;;8.50;99.90;;;;;;5018408;28;20466;-66
2023/12/24 01:45:49;;;;;;;7.23;3.33;;;8.50;99.90;;;;;;5018212;28;20961;-66
2023/12/24 01:48:16;;;;;;;6.10;3.53;;;8.50;99.90;;;;;;5018623;28;20460;-66
2023/12/24 01:50:46;;;;;;;5.00;3.50;;;8.50;99.90;;;;;;5018389;28;20509;-66
2023/12/24 01:53:14;;;;;;;4.80;3.70;;;8.50;99.90;;;;;;5018648;28;20812;-66
2023/12/24 01:55:41;;;;;;;4.70;3.30;;;8.50;99.90;;;;;;5013265;28;20506;-68
2023/12/24 01:58:08;;;;;;;6.27;3.20;;;8.50;99.90;;;;;;5002527;28;20460;-68
2023/12/24 02:00:36;;;;;;;6.80;3.00;;;8.50;99.90;;;;;;5018101;28;20466;-69
2023/12/24 02:03:06;;;;;;;5.50;3.43;;;8.50;99.90;;;;;;5016202;28;20460;-62
2023/12/24 02:05:33;;;;;;;7.77;3.77;;;8.50;99.90;;;;;;5017492;28;20458;-68
2023/12/24 02:08:02;;;;;;;6.80;3.10;;;8.50;99.90;;;;;;5016938;28;20456;-66
2023/12/24 02:10:30;;;;;;;4.63;3.83;;;8.50;99.90;;;;;;5017869;28;20885;-66
2023/12/24 02:12:58;;;;;;;12.93;3.57;;;8.50;99.90;;;;;;5018020;28;20456;-67
2023/12/24 02:15:25;;;;;;;4.83;3.80;;;8.50;99.90;;;;;;5016741;28;20936;-64
2023/12/24 02:17:53;;;;;;;7.67;3.67;;;8.50;99.90;;;;;;5016459;28;20464;-68
2023/12/24 02:20:25;;;;;;;4.50;3.43;;;8.50;99.90;;;;;;4978535;28;20457;-68
2023/12/24 02:22:54;;;;;;;4.70;3.30;;;8.50;99.90;;;;;;4978485;28;20879;-67
2023/12/24 02:25:21;;;;;;;6.17;3.37;;;8.50;99.90;;;;;;4977671;28;20462;-68
2023/12/24 02:27:56;;;;;;;3.87;2.70;;;8.50;99.90;;;;;;4977593;28;20872;-68
2023/12/24 02:30:27;;;;;;;6.33;2.90;;;8.50;99.90;;;;;;4979103;28;20485;-68
2023/12/24 02:32:57;;;;;;;4.57;2.77;;;8.50;99.90;;;;;;4978928;28;20533;-69
2023/12/24 02:35:30;;;;;;;6.97;3.83;;;8.50;99.90;;;;;;4978790;28;20476;-67
2023/12/24 02:37:58;;;;;;;7.13;3.60;;;8.50;99.90;;;;;;4980248;28;20461;-69
2023/12/24 02:40:25;;;;;;;5.40;2.90;;;8.60;99.90;;;;;;4978896;28;20465;-67
2023/12/24 02:42:53;;;;;;;10.07;3.60;;;8.60;99.90;;;;;;4979141;28;20549;-69
2023/12/24 02:45:20;;;;;;;5.20;2.80;;;8.60;99.90;;;;;;4978464;28;20465;-69
2023/12/24 02:47:47;;;;;;;6.70;3.10;;;8.60;99.90;;;;;;4979436;28;20810;-67
2023/12/24 02:50:16;;;;;;;5.40;2.27;;;8.50;99.90;;;;;;4979224;28;20836;-66
2023/12/24 02:52:44;;;;;;;6.80;2.60;;;8.60;99.90;;;;;;4979876;28;20857;-66
2023/12/24 02:55:13;;;;;;;5.67;2.63;;;8.50;99.90;;;;;;4979562;28;20497;-66
2023/12/24 02:57:40;;;;;;;4.73;3.27;;;8.50;99.90;;;;;;4978475;28;20499;-66
2023/12/24 03:00:09;;;;;;;4.10;2.63;;;8.50;99.90;;;;;;4978878;28;20560;-66
2023/12/24 03:02:37;;;;;;;6.07;2.40;;;8.50;99.90;;;;;;4978060;28;20465;-66
2023/12/24 03:05:04;;;;;;;3.17;2.37;;;8.50;99.90;;;;;;4978306;28;20760;-66
2023/12/24 03:07:32;;;;;;;4.27;2.43;;;8.50;99.90;;;;;;4978282;28;20533;-64
2023/12/24 03:09:59;;;;;;;3.70;1.97;;;8.40;99.90;;;;;;4978354;28;20462;-65
2023/12/24 03:12:27;;;;;;;3.97;1.80;;;8.50;99.90;;;;;;4978685;28;20493;-66
2023/12/24 03:14:55;;;;;;;4.00;2.00;;;8.40;99.90;;;;;;4978756;28;20868;-65
2023/12/24 03:17:22;;;;;;;6.40;2.00;;;8.50;99.90;;;;;;4978055;28;20468;-65
2023/12/24 03:19:49;;;;;;;3.27;1.60;;;8.40;99.90;;;;;;5008952;28;20484;-65
2023/12/24 03:22:16;;;;;;;2.83;1.60;;;8.40;99.90;;;;;;5017165;28;20960;-65
2023/12/24 03:24:43;;;;;;;2.20;1.40;;;8.40;99.90;;;;;;5017420;28;20872;-66
2023/12/24 03:27:10;;;;;;;3.07;1.50;;;8.50;99.90;;;;;;5017022;28;20467;-65
2023/12/24 03:29:39;;;;;;;2.17;1.30;;;8.50;99.90;;;;;;5017315;28;20563;-66
2023/12/24 03:32:09;;;;;;;2.30;1.20;;;8.50;99.90;;;;;;5017248;28;20957;-66
2023/12/24 03:34:36;;;;;;;3.40;1.30;;;8.50;99.90;;;;;;5017101;28;20467;-65
2023/12/24 03:37:04;;;;;;;2.70;1.50;;;8.50;99.90;;;;;;5016941;28;20468;-65
2023/12/24 03:39:31;;;;;;;2.83;1.50;;;8.50;99.90;;;;;;5016938;28;20767;-64
2023/12/24 03:41:58;;;;;;;1.93;1.30;;;8.60;99.90;;;;;;5017259;28;20558;-65
2023/12/24 03:44:25;;;;;;;2.20;1.40;;;8.60;99.90;;;;;;5017208;28;20464;-65
2023/12/24 03:46:54;;;;;;;3.53;1.43;;;8.60;99.90;;;;;;5016984;28;20463;-65
2023/12/24 03:49:21;;;;;;;2.40;1.60;;;8.60;99.90;;;;;;5016916;28;20464;-66
2023/12/24 03:51:49;;;;;;;2.10;1.40;;;8.60;99.90;;;;;;5017537;28;20456;-67
2023/12/24 03:54:16;;;;;;;2.40;1.80;;;8.60;99.90;;;;;;5020491;28;20462;-66
2023/12/24 03:56:43;;;;;;;2.60;1.70;;;8.60;99.90;;;;;;5020407;28;20596;-65
2023/12/24 03:59:11;;;;;;;2.37;1.80;;;8.60;99.90;;;;;;5020560;28;20482;-66
2023/12/24 04:01:38;;;;;;;2.60;1.70;;;8.70;99.90;;;;;;5020304;28;20551;-66
2023/12/24 04:04:06;;;;;;;2.80;1.80;;;8.70;99.90;;;;;;5020187;28;20456;-66
2023/12/24 04:06:33;;;;;;;2.50;1.93;;;8.70;99.90;;;;;;5020512;28;20874;-66
2023/12/24 04:09:01;;;;;;;2.60;1.80;;;8.70;99.90;;;;;;5020406;28;20487;-66
2023/12/24 04:11:28;;;;;;;2.97;2.30;;;8.70;99.90;;;;;;5020134;28;20751;-66
2023/12/24 04:13:55;;;;;;;3.20;2.30;;;8.70;99.90;;;;;;5020354;28;20500;-66
2023/12/24 04:16:23;;;;;;;2.80;2.50;;;8.70;99.90;;;;;;5020591;28;20565;-66
2023/12/24 04:18:50;;;;;;;2.80;2.43;;;8.70;99.90;;;;;;5020358;28;20511;-66
2023/12/24 04:21:19;;;;;;;3.37;2.70;;;8.80;99.90;;;;;;5019980;28;20755;-65
2023/12/24 04:23:46;;;;;;;3.87;2.73;;;8.70;99.90;;;;;;5019909;28;20930;-66
2023/12/24 04:26:13;;;;;;;3.23;2.90;;;8.70;99.90;;;;;;5020000;28;20463;-66
2023/12/24 04:28:41;;;;;;;3.70;2.90;;;8.70;99.90;;;;;;5020071;28;20546;-66
2023/12/24 04:31:08;;;;;;;3.20;2.87;;;8.80;99.90;;;;;;5019994;28;20897;-66
2023/12/24 04:33:35;;;;;;;4.07;2.87;;;8.80;99.90;;;;;;5019470;28;20460;-66
2023/12/24 04:36:02;;;;;;;3.30;3.00;;;8.70;99.90;;;;;;5019662;28;20495;-66
2023/12/24 04:38:31;;;;;;;4.03;2.80;;;8.80;99.90;;;;;;5019801;28;20456;-66
2023/12/24 04:40:58;;;;;;;3.03;2.43;;;8.80;99.90;;;;;;5019151;28;20495;-65
2023/12/24 04:43:25;;;;;;;4.10;2.80;;;8.80;99.90;;;;;;5019365;28;20906;-66
2023/12/24 04:45:52;;;;;;;2.87;2.40;;;8.80;99.90;;;;;;5019354;28;20456;-66
2023/12/24 04:48:19;;;;;;;4.30;2.83;;;8.80;99.90;;;;;;5019632;28;20478;-65
2023/12/24 04:50:47;;;;;;;2.90;2.33;;;8.70;99.90;;;;;;5019391;28;20460;-66
2023/12/24 04:53:14;;;;;;;3.23;2.70;;;8.80;99.90;;;;;;5019870;28;20568;-66
2023/12/24 04:55:44;;;;;;;3.00;2.30;;;8.70;99.90;;;;;;5019550;28;20496;-67
2023/12/24 04:58:11;;;;;;;4.50;2.60;;;8.80;99.90;;;;;;5019278;28;20473;-67
2023/12/24 05:00:38;;;;;;;2.83;2.20;;;8.80;99.90;;;;;;5012241;28;20463;-66
2023/12/24 05:03:05;;;;;;;3.80;2.20;;;8.80;99.90;;;;;;4999111;28;20460;-66
2023/12/24 05:05:32;;;;;;;2.80;2.23;;;8.70;99.90;;;;;;4998999;28;20468;-66
2023/12/24 05:08:00;;;;;;;2.47;1.87;;;8.70;99.90;;;;;;4999370;28;20465;-66
2023/12/24 05:10:28;;;;;;;3.30;2.80;;;8.70;99.90;;;;;;4999710;28;20465;-66
2023/12/24 05:12:56;;;;;;;3.13;2.20;;;8.80;99.90;;;;;;4999686;28;20765;-66
2023/12/24 05:15:24;;;;;;;2.57;2.03;;;8.70;99.90;;;;;;4999127;28;20496;-66
2023/12/24 05:17:51;;;;;;;2.57;1.70;;;8.70;99.90;;;;;;4999542;28;20469;-67
2023/12/24 05:20:18;;;;;;;2.40;1.80;;;8.70;99.90;;;;;;4999188;28;20547;-65
2023/12/24 05:22:47;;;;;;;2.93;2.10;;;8.70;99.90;;;;;;4999246;28;20467;-66
2023/12/24 05:25:14;;;;;;;2.40;1.77;;;8.70;99.90;;;;;;4998766;28;20560;-65
2023/12/24 05:27:43;;;;;;;2.30;1.90;;;8.70;99.90;;;;;;4998900;28;20465;-65
2023/12/24 05:30:12;;;;;;;2.60;2.17;;;8.70;99.90;;;;;;4998992;28;20469;-65
2023/12/24 05:32:39;;;;;;;2.50;1.93;;;8.70;99.90;;;;;;4999017;28;20757;-65
2023/12/24 05:35:07;;;;;;;2.50;2.17;;;8.80;99.90;;;;;;4998294;28;20460;-67
2023/12/24 05:37:34;;;;;;;2.80;2.30;;;8.70;99.90;;;;;;4998889;28;20747;-66
2023/12/24 05:40:01;;;;;;;2.60;2.10;;;8.70;99.90;;;;;;4998273;28;20507;-66
2023/12/24 05:42:29;;;;;;;2.40;1.70;;;8.80;99.90;;;;;;4998901;28;20773;-66
2023/12/24 05:44:56;;;;;;;2.93;2.03;;;8.70;99.90;;;;;;4999111;28;20467;-67
2023/12/24 05:47:24;;;;;;;2.43;1.70;;;8.80;99.90;;;;;;4998666;28;20492;-65
2023/12/24 05:49:52;;;;;;;2.20;1.60;;;8.80;99.90;;;;;;4998541;28;20507;-66
2023/12/24 05:52:19;;;;;;;2.27;1.73;;;8.80;99.90;;;;;;4998554;28;20465;-67
2023/12/24 05:54:46;;;;;;;3.33;2.00;;;8.80;99.90;;;;;;4998943;28;20741;-66
2023/12/24 05:57:13;;;;;;;2.10;1.50;;;8.70;99.90;;;;;;4998361;28;20584;-66
2023/12/24 05:59:40;;;;;;;2.10;1.30;;;8.80;99.90;;;;;;4998697;28;20559;-66
2023/12/24 06:02:07;;;;;;;2.20;1.50;;;8.80;99.90;;;;;;5007676;28;20483;-67
2023/12/24 06:04:36;;;;;;;2.13;1.57;;;8.80;99.90;;;;;;5017886;28;20867;-66
2023/12/24 06:07:04;;;;;;;2.10;1.40;;;8.80;99.90;;;;;;5017474;28;20456;-66
2023/12/24 06:09:31;;;;;;;2.20;1.40;;;8.80;99.90;;;;;;5018061;28;20442;-66
2023/12/24 06:11:59;;;;;;;2.07;1.50;;;8.80;99.90;;;;;;5018002;28;20464;-66
2023/12/24 06:14:26;;;;;;;2.33;1.63;;;8.80;99.90;;;;;;5017419;28;20889;-66
2023/12/24 06:16:53;;;;;;;2.00;1.20;;;8.80;99.90;;;;;;5017179;28;20590;-66
2023/12/24 06:19:20;;;;;;;2.00;1.40;;;8.80;99.90;;;;;;5017201;28;20487;-65
2023/12/24 06:21:49;;;;;;;2.10;1.40;;;8.80;99.90;;;;;;5017506;28;20539;-66
2023/12/24 06:24:20;;;;;;;2.30;1.73;;;8.80;99.90;;;;;;5016428;28;20514;-66
2023/12/24 06:26:48;;;;;;;3.20;1.83;;;8.90;99.90;;;;;;5016884;28;20496;-65
2023/12/24 06:29:15;;;;;;;2.30;1.67;;;8.90;99.90;;;;;;5015610;28;20557;-66
2023/12/24 06:31:44;;;;;;;2.50;1.73;;;8.90;99.90;;;;;;5016152;28;20525;-66
2023/12/24 06:34:11;;;;;;;2.40;1.73;;;8.90;99.90;;;;;;5016044;28;20464;-66
2023/12/24 06:36:38;;;;;;;2.23;1.57;;;8.90;99.90;;;;;;5015599;28;20549;-66
2023/12/24 06:39:07;;;;;;;2.60;1.87;;;8.90;99.90;;;;;;5016373;28;20557;-66
2023/12/24 06:41:34;;;;;;;2.33;1.83;;;8.90;99.90;;;;;;5016267;28;20595;-67
2023/12/24 06:44:01;;;;;;;2.20;1.70;;;8.90;99.90;;;;;;5016256;28;20550;-65
2023/12/24 06:46:28;;;;;;;2.40;1.70;;;8.90;99.90;;;;;;5016516;28;20551;-66
2023/12/24 06:48:55;;;;;;;2.30;1.60;;;8.90;99.90;;;;;;5016735;28;20460;-64
2023/12/24 06:51:23;;;;;;;2.50;2.00;;;8.90;99.90;;;;;;5016085;28;20466;-66
2023/12/24 06:53:50;;;;;;;2.40;2.00;;;8.90;99.90;;;;;;5017280;28;20464;-65
2023/12/24 06:56:18;;;;;;;3.10;2.13;;;8.90;99.90;;;;;;5017701;28;20586;-65
2023/12/24 06:58:45;;;;;;;3.20;2.50;;;8.90;99.90;;;;;;5017508;28;20460;-65
2023/12/24 07:01:13;;;;;;;2.80;2.20;;;9.00;99.90;;;;;;5017191;28;20467;-65
2023/12/24 07:03:40;;;;;;;2.50;2.00;;;8.90;99.90;;;;;;5017114;28;20543;-66
2023/12/24 07:06:07;;;;;;;2.63;2.30;;;9.00;99.90;;;;;;5016736;28;20538;-65
2023/12/24 07:08:35;;;;;;;2.80;2.23;;;9.00;99.90;;;;;;5017246;28;20468;-66
2023/12/24 07:11:02;;;;;;;2.80;2.30;;;9.00;99.90;;;;;;5017499;28;20520;-66
2023/12/24 07:13:30;;;;;;;3.27;2.30;;;9.00;99.90;;;;;;5017356;28;20563;-67
2023/12/24 07:15:59;;;;;;;3.23;2.10;;;9.00;99.90;;;;;;5017265;28;20492;-66
2023/12/24 07:18:26;;;;;;;2.90;2.23;;;9.00;99.90;;;;;;5016945;28;20488;-65
2023/12/24 07:20:54;;;;;;;2.40;2.00;;;9.00;99.90;;;;;;5017565;28;20477;-66
2023/12/24 07:23:21;;;;;;;2.47;2.00;;;9.00;99.90;;;;;;5017039;28;20909;-67
2023/12/24 07:25:48;;;;;;;2.53;2.10;;;9.00;99.90;;;;;;5016979;28;20814;-64
2023/12/24 07:28:15;;;;;;;2.50;2.03;;;9.00;99.90;;;;;;5019771;28;20471;-66
2023/12/24 07:30:44;;;;;;;2.30;1.80;;;9.00;99.90;;;;;;5021169;28;20467;-65
2023/12/24 07:33:11;;;;;;;2.90;2.30;;;9.10;99.90;;;;;;5020535;28;20460;-66
2023/12/24 07:35:39;;;;;;;3.00;2.10;;;9.10;99.90;;;;;;5017690;28;20452;-66
2023/12/24 07:38:06;;;;;;;2.83;2.20;;;9.10;99.90;;;;;;5007352;28;20564;-65
2023/12/24 07:40:34;;;;;;;4.10;2.43;;;9.10;99.90;;;;;;5001166;28;20774;-65
2023/12/24 07:43:01;;;;;;;2.50;2.10;;;9.10;99.90;;;;;;5001239;28;20464;-65
2023/12/24 07:45:28;;;;;;;4.00;2.33;;;9.10;99.90;;;;;;5000796;28;20952;-66
2023/12/24 07:47:57;;;;;;;2.67;2.10;;;9.10;99.90;;;;;;5001256;28;20432;-65
2023/12/24 07:50:24;;;;;;;3.00;2.70;;;9.10;99.90;;;;;;5001176;28;20464;-65
2023/12/24 07:52:51;;;;;;;2.60;2.13;;;9.10;99.90;;;;;;5000716;28;20568;-66
2023/12/24 07:55:19;;;;;;;2.47;1.93;;;9.10;99.90;;;;;;5000504;28;20508;-64
2023/12/24 07:57:46;;;;;;;2.80;2.23;;;9.10;99.90;;;;;;5000532;28;20586;-63
2023/12/24 08:00:14;;;;;;;4.00;2.37;;;9.10;99.90;;;;;;5000872;28;20483;-65
2023/12/24 08:02:41;;;;;;;2.73;2.23;;;9.20;99.90;;;;;;5000591;28;20471;-65
2023/12/24 08:05:10;;;;;;;2.80;2.43;;;9.20;99.90;;;;;;5000085;28;20758;-66
2023/12/24 08:07:37;;;;;;;2.97;2.37;;;9.20;99.90;;;;;;5004691;28;20816;-66
2023/12/24 08:10:05;;;;;;;3.33;2.33;;;9.20;99.90;;;;;;4998218;28;20465;-66
2023/12/24 08:12:32;;;;;;;2.97;2.40;;;9.20;99.90;;;;;;4996222;28;20492;-66
2023/12/24 08:14:59;;;;;;;3.90;2.40;;;9.20;99.90;;;;;;4996430;28;20518;-66
2023/12/24 08:17:27;;;;;;;3.93;2.27;;;9.20;99.90;;;;;;4997886;28;20911;-66
2023/12/24 08:19:54;;;;;;;2.70;2.00;;;9.20;99.90;;;;;;4998386;28;20987;-67
2023/12/24 08:22:23;;;;;;;3.07;1.80;;;9.20;99.90;;;;;;4998623;28;20881;-65
2023/12/24 08:24:50;;;;;;;2.60;2.10;;;9.20;99.90;;;;;;4998741;28;20518;-65
2023/12/24 08:27:17;;;;;;;3.13;2.30;;;9.20;99.90;;;;;;4998605;28;20560;-66
2023/12/24 08:29:45;;;;;;;2.80;2.50;;;9.20;99.90;;;;;;4999070;28;20544;-67
2023/12/24 08:32:12;;;;;;;2.87;2.47;;;9.20;99.90;;;;;;4998674;28;20465;-66
2023/12/24 08:34:39;;;;;;;3.17;2.83;;;9.20;99.90;;;;;;4998378;28;20832;-66
2023/12/24 08:37:06;;;;;;;2.87;2.30;;;9.20;99.90;;;;;;4998460;28;20872;-66
2023/12/24 08:39:35;;;;;;;4.23;2.30;;;9.20;99.90;;;;;;4997119;28;20463;-66
2023/12/24 08:42:02;;;;;;;2.90;2.03;;;9.20;99.90;;;;;;4999919;28;20471;-66
2023/12/24 08:44:30;;;;;;;3.93;2.77;;;9.20;99.90;;;;;;5000029;28;20473;-66
2023/12/24 08:46:57;;;;;;;2.83;2.23;;;9.20;99.90;;;;;;4999867;28;20882;-66
2023/12/24 08:49:25;;;;;;;2.50;1.90;;;9.20;99.90;;;;;;5000366;28;20555;-65
2023/12/24 08:51:52;;;;;;;3.37;2.33;;;9.30;99.90;;;;;;5000031;28;20559;-66
2023/12/24 08:54:19;;;;;;;3.70;1.90;;;9.20;99.90;;;;;;4999907;28;20461;-65
2023/12/24 08:56:48;;;;;;;2.63;1.93;;;9.20;99.90;;;;;;5000078;28;20498;-67
2023/12/24 08:59:15;;;;;;;3.00;2.20;;;9.30;99.90;;;;;;4999412;28;20461;-64
2023/12/24 09:01:43;;;;;;;3.90;2.57;;;9.30;99.90;;;;;;4999257;28;20576;-65
2023/12/24 09:04:10;;;;;;;3.80;2.27;;;9.30;99.90;;;;;;4999684;28;20464;-65
2023/12/24 09:06:38;;;;;;;2.50;2.03;;;9.30;99.90;;;;;;4999847;28;20461;-65
2023/12/24 09:09:04;;;;;;;3.20;2.20;;;9.30;99.90;;;;;;4999146;28;20468;-62
2023/12/24 09:11:32;;;;;;;3.00;1.93;;;9.30;99.90;;;;;;4999711;28;20461;-62
2023/12/24 09:14:00;;;;;;;2.90;2.30;;;9.30;99.90;;;;;;4999520;28;20586;-66
2023/12/24 09:16:28;;;;;;;2.80;2.07;;;9.40;99.90;;;;;;4999083;28;20492;-65
2023/12/24 09:18:55;;;;;;;3.00;1.90;;;9.40;99.90;;;;;;4998827;28;20485;-66
2023/12/24 09:21:22;;;;;;;3.23;1.63;;;9.40;99.90;;;;;;4998792;28;20550;-62
2023/12/24 09:23:49;;;;;;;3.63;2.13;;;9.40;99.90;;;;;;4999365;28;20475;-66
2023/12/24 09:26:17;;;;;;;3.10;2.23;;;9.40;99.90;;;;;;4998525;28;20555;-66
2023/12/24 09:28:44;;;;;;;3.07;2.10;;;9.50;99.90;;;;;;4999249;28;20511;-65
2023/12/24 09:31:13;;;;;;;2.90;1.83;;;9.40;99.90;;;;;;4998708;28;20472;-65
2023/12/24 09:33:40;;;;;;;4.60;3.30;;;9.40;99.90;;;;;;4998626;28;20460;-62
2023/12/24 09:36:08;;;;;;;4.53;3.00;;;9.50;99.90;;;;;;4998847;28;20889;-64
2023/12/24 09:38:37;;;;;;;2.83;2.20;;;9.50;99.90;;;;;;4998550;28;20944;-65
2023/12/24 09:41:05;;;;;;;4.80;3.23;;;9.50;99.90;;;;;;4998169;28;20460;-64
2023/12/24 09:43:34;;;;;;;4.27;2.60;;;9.50;99.90;;;;;;4998720;28;20465;-65
2023/12/24 09:46:01;;;;;;;3.20;2.30;;;9.50;99.90;;;;;;4998576;28;20796;-66
2023/12/24 09:48:30;;;;;;;3.17;2.30;;;9.50;99.90;;;;;;4998695;28;20453;-66
2023/12/24 09:50:57;;;;;;;2.60;1.83;;;9.50;99.90;;;;;;4997948;28;20519;-66
2023/12/24 09:53:24;;;;;;;2.80;1.80;;;9.50;99.90;;;;;;4998205;28;20500;-66
2023/12/24 09:55:52;;;;;;;3.50;2.17;;;9.50;99.90;;;;;;4998561;28;20468;-66
2023/12/24 09:58:19;;;;;;;2.37;1.90;;;9.50;99.90;;;;;;4998417;28;20493;-67
2023/12/24 10:00:46;;;;;;;2.40;1.80;;;9.50;99.90;;;;;;4998427;28;20474;-66
2023/12/24 10:03:14;;;;;;;2.43;1.80;;;9.60;99.90;;;;;;4997924;28;20465;-65
2023/12/24 10:06:07;;;;;;;2.90;1.83;;;9.60;99.90;;;;;;4997965;28;20461;-66
2023/12/24 10:08:35;;;;;;;2.93;2.20;;;9.60;99.90;;;;;;4983439;28;20472;-65
2023/12/24 10:11:15;;;;;;;2.57;2.20;;;9.60;99.90;;;;;;5004595;28;20526;-64
2023/12/24 10:13:42;;;;;;;5.10;4.03;;;9.60;99.90;;;;;;4998343;28;20943;-63
2023/12/24 10:16:10;;;;;;;3.10;2.43;;;9.60;99.90;;;;;;5012780;28;20555;-64
2023/12/24 10:18:38;;;;;;;3.70;2.20;;;9.60;99.90;;;;;;5004795;28;20539;-66
2023/12/24 10:21:10;;;;;;;2.87;2.50;;;9.60;99.90;;;;;;5017210;28;20460;-65
2023/12/24 10:23:38;;;;;;;3.20;2.30;;;9.60;99.90;;;;;;5017575;28;20741;-65
2023/12/24 10:26:08;;;;;;;3.47;2.30;;;9.60;99.90;;;;;;5017585;28;20464;-65
2023/12/24 10:28:46;;;;;;;2.50;1.93;;;9.60;99.90;;;;;;5017378;28;20462;-65
2023/12/24 10:31:14;;;;;;;3.10;2.00;;;9.60;99.90;;;;;;5017281;28;20474;-66
2023/12/24 10:33:42;;;;;;;3.03;2.10;;;9.70;99.90;;;;;;5017540;28;20467;-63
2023/12/24 10:36:11;;;;;;;2.47;1.90;;;9.70;99.90;;;;;;5017583;28;20460;-65
2023/12/24 10:38:39;;;;;;;2.40;1.77;;;9.70;99.90;;;;;;5017386;28;20602;-64
2023/12/24 10:41:07;;;;;;;3.23;2.20;;;9.70;99.90;;;;;;5016977;28;20455;-66
2023/12/24 10:43:34;;;;;;;3.30;2.50;;;9.60;99.90;;;;;;5017621;28;20534;-63
2023/12/24 10:46:03;;;;;;;2.57;2.00;;;9.70;99.90;;;;;;5017380;28;20464;-65
2023/12/24 10:48:30;;;;;;;3.00;2.10;;;9.70;99.90;;;;;;5017544;28;20460;-63
2023/12/24 10:50:58;;;;;;;3.13;2.80;;;9.70;99.90;;;;;;5016937;28;20522;-65
2023/12/24 10:53:27;;;;;;;3.17;2.67;;;9.70;99.90;;;;;;5016968;28;20464;-65
2023/12/24 10:56:03;;;;;;;3.17;2.20;;;9.70;99.90;;;;;;5017137;28;20456;-64
2023/12/24 10:58:40;;;;;;;3.60;2.80;;;9.80;99.90;;;;;;5016850;28;20966;-65
2023/12/24 11:01:10;;;;;;;3.03;2.30;;;9.80;99.90;;;;;;5016793;28;20491;-65
2023/12/24 11:03:47;;;;;;;4.17;3.50;;;9.70;99.90;;;;;;5020686;28;20470;-66
2023/12/24 11:06:46;;;;;;;3.03;2.27;;;9.80;99.90;;;;;;5021479;28;20526;-65
2023/12/24 11:09:47;;;;;;;4.07;3.00;;;9.80;99.90;;;;;;5020933;28;20479;-65
2023/12/24 11:12:32;;;;;;;5.43;2.53;;;9.80;99.90;;;;;;5021238;28;20451;-66
2023/12/24 11:15:01;;;;;;;3.93;2.80;;;9.80;99.90;;;;;;5020472;28;20464;-65
2023/12/24 11:17:49;;;;;;;3.13;2.27;;;9.80;99.90;;;;;;5020514;28;20999;-66
2023/12/24 11:20:47;;;;;;;3.37;3.03;;;9.80;99.90;;;;;;4976112;28;20501;-62
2023/12/24 11:23:16;;;;;;;3.70;2.90;;;9.90;99.90;;;;;;4922029;29;20473;-66
2023/12/24 11:25:46;;;;;;;4.93;3.70;;;9.90;99.90;;;;;;4968945;28;20468;-62
2023/12/24 11:28:35;;;;;;;4.00;3.10;;;9.90;99.90;;;;;;4981868;28;20453;-65
2023/12/24 11:31:04;;;;;;;5.90;5.37;;;9.90;99.90;;;;;;4981369;28;20468;-65
2023/12/24 11:33:45;;;;;;;4.23;3.30;;;9.90;99.90;;;;;;4981639;28;20480;-65
2023/12/24 11:36:14;;;;;;;4.37;3.30;;;9.90;99.90;;;;;;4981602;28;20807;-66
2023/12/24 11:38:42;;;;;;;3.40;3.00;;;9.90;99.90;;;;;;4981565;28;20493;-64
2023/12/24 11:41:12;;;;;;;4.60;2.90;;;9.90;99.90;;;;;;4981141;28;20557;-66
2023/12/24 11:43:42;;;;;;;5.37;3.57;;;9.90;99.90;;;;;;4981363;28;20516;-65
2023/12/24 11:46:10;;;;;;;4.97;3.00;;;10.00;99.90;;;;;;4981459;28;20510;-65
2023/12/24 11:48:38;;;;;;;5.37;4.03;;;10.00;99.90;;;;;;4981381;28;20757;-63
2023/12/24 11:51:06;;;;;;;4.73;3.43;;;10.10;99.90;;;;;;4981272;28;20500;-65
2023/12/24 11:53:35;;;;;;;6.30;5.70;;;10.00;99.90;;;;;;4981523;28;20835;-66
2023/12/24 11:56:09;;;;;;;3.50;3.10;;;10.00;99.90;;;;;;4981866;28;20505;-65
2023/12/24 11:58:40;;;;;;;3.83;3.03;;;10.00;99.90;;;;;;4982454;28;20493;-66
2023/12/24 12:01:07;;;;;;;4.17;2.90;;;10.00;99.90;;;;;;4981637;28;20461;-67
2023/12/24 12:03:36;;;;;;;3.77;3.03;;;10.00;99.90;;;;;;4982266;28;20462;-67
2023/12/24 12:06:05;;;;;;;5.33;4.20;;;10.00;99.90;;;;;;4981614;28;20512;-66
2023/12/24 12:08:33;;;;;;;3.67;2.90;;;10.00;99.90;;;;;;4981177;28;20832;-66
2023/12/24 12:11:02;;;;;;;5.97;3.90;;;10.10;99.90;;;;;;4980929;28;20472;-65
2023/12/24 12:13:30;;;;;;;5.20;4.70;;;10.10;99.90;;;;;;4981468;28;20750;-67
2023/12/24 12:15:59;;;;;;;4.10;3.67;;;10.10;99.90;;;;;;4980954;28;20513;-65
2023/12/24 12:18:26;;;;;;;6.10;4.60;;;10.10;99.90;;;;;;4989456;28;20887;-66
2023/12/24 12:20:54;;;;;;;5.20;4.70;;;10.10;99.90;;;;;;5020121;28;20748;-68
2023/12/24 12:23:22;;;;;;;5.10;4.60;;;10.10;99.90;;;;;;5020285;28;20495;-67
2023/12/24 12:25:50;;;;;;;7.17;6.37;;;10.10;99.90;;;;;;5020342;28;20553;-68
2023/12/24 12:28:17;;;;;;;5.20;4.67;;;10.10;99.90;;;;;;5020358;28;20566;-67
2023/12/24 12:30:46;;;;;;;4.63;4.23;;;10.10;99.90;;;;;;5020674;28;20464;-69
2023/12/24 12:33:16;;;;;;;5.33;4.37;;;10.10;99.90;;;;;;5020008;28;20546;-68
2023/12/24 12:35:43;;;;;;;4.70;4.30;;;10.10;99.90;;;;;;5019689;28;20460;-66
2023/12/24 12:38:11;;;;;;;5.80;4.50;;;10.10;99.90;;;;;;5019925;28;21027;-67
2023/12/24 12:40:38;;;;;;;6.80;4.60;;;10.10;99.90;;;;;;5020323;28;20555;-65
2023/12/24 12:43:08;;;;;;;5.13;4.63;;;10.10;99.90;;;;;;5019602;28;20551;-66
2023/12/24 12:45:35;;;;;;;4.90;3.80;;;10.10;99.90;;;;;;5019589;28;20643;-67
2023/12/24 12:48:03;;;;;;;7.17;4.00;;;10.10;99.90;;;;;;5019519;28;20491;-66
2023/12/24 12:50:32;;;;;;;5.17;3.30;;;10.20;99.90;;;;;;5014517;28;20560;-65
2023/12/24 12:52:59;;;;;;;4.17;3.10;;;10.20;99.90;;;;;;4999030;28;20492;-65
2023/12/24 12:55:31;;;;;;;4.13;3.50;;;10.20;99.90;;;;;;5009831;28;20547;-65
2023/12/24 12:57:58;;;;;;;4.17;2.90;;;10.20;99.90;;;;;;5018461;28;20503;-65
2023/12/24 13:00:26;;;;;;;3.73;2.23;;;10.30;99.90;;;;;;5007657;28;20465;-65
2023/12/24 13:02:53;;;;;;;2.77;2.20;;;10.30;99.90;;;;;;4999297;28;20551;-64